createdAt,value
2023-09-17T00:00:23.724Z,5.10
2023-09-17T00:02:50.697Z,5.80
2023-09-17T00:05:24.729Z,5.90
2023-09-17T00:07:56.561Z,4.87
2023-09-17T00:10:23.858Z,4.87
2023-09-17T00:13:02.990Z,5.50
2023-09-17T00:15:36.361Z,5.03
2023-09-17T00:18:10.817Z,4.87
2023-09-17T00:20:37.671Z,5.50
2023-09-17T00:26:07.738Z,4.77
2023-09-17T00:28:45.837Z,5.13
2023-09-17T00:31:12.738Z,4.70
2023-09-17T00:33:45.775Z,5.17
2023-09-17T00:36:18.762Z,4.97
2023-09-17T00:38:45.623Z,5.60
2023-09-17T00:41:13.527Z,4.63
2023-09-17T00:43:46.862Z,5.03
2023-09-17T00:46:21.813Z,5.27
2023-09-17T00:48:48.805Z,4.50
2023-09-17T00:51:22.785Z,5.40
2023-09-17T00:53:50.238Z,4.30
2023-09-17T00:56:17.373Z,5.00
2023-09-17T00:58:51.833Z,4.80
2023-09-17T01:01:20.013Z,4.90
2023-09-17T01:03:57.027Z,5.00
2023-09-17T01:06:30.795Z,5.20
2023-09-17T01:08:58.610Z,5.47
2023-09-17T01:11:32.808Z,4.37
2023-09-17T01:14:09.458Z,4.60
2023-09-17T01:20:00.821Z,5.67
2023-09-17T01:29:08.836Z,5.03
2023-09-17T01:34:39.017Z,5.50
2023-09-17T01:37:27.860Z,6.87
2023-09-17T01:39:58.111Z,5.93
2023-09-17T01:42:32.857Z,5.90
2023-09-17T01:45:01.755Z,4.90
2023-09-17T01:47:29.668Z,5.60
2023-09-17T01:50:07.880Z,5.40
2023-09-17T01:52:41.898Z,5.37
2023-09-17T01:55:11.726Z,5.57
2023-09-17T01:57:38.589Z,6.23
2023-09-17T02:00:38.859Z,5.00
2023-09-17T02:03:05.904Z,4.97
2023-09-17T02:05:39.891Z,5.40
2023-09-17T02:08:06.992Z,5.83
2023-09-17T02:10:33.929Z,5.03
2023-09-17T02:13:06.908Z,5.23
2023-09-17T02:15:41.010Z,6.03
2023-09-17T02:18:21.870Z,6.30
2023-09-17T02:20:54.887Z,6.30
2023-09-17T02:23:21.723Z,6.97
2023-09-17T02:26:05.901Z,6.23
2023-09-17T02:28:38.900Z,5.60
2023-09-17T02:31:10.429Z,5.30
2023-09-17T02:33:43.914Z,6.10
2023-09-17T02:36:10.754Z,6.73
2023-09-17T02:38:37.595Z,5.70
2023-09-17T02:41:11.887Z,7.03
2023-09-17T02:43:44.976Z,6.20
2023-09-17T02:46:12.495Z,7.57
2023-09-17T02:48:42.132Z,6.80
2023-09-17T02:54:06.881Z,6.80
2023-09-17T02:56:41.908Z,7.10
2023-09-17T02:59:08.993Z,6.43
2023-09-17T03:01:42.990Z,7.13
2023-09-17T03:04:09.899Z,7.07
2023-09-17T03:06:36.975Z,6.50
2023-09-17T03:09:16.920Z,7.30
2023-09-17T03:11:43.746Z,6.37
2023-09-17T03:14:16.917Z,6.00
2023-09-17T03:16:50.147Z,6.67
2023-09-17T03:19:29.977Z,7.70
2023-09-17T03:22:02.939Z,7.00
2023-09-17T03:24:29.841Z,7.30
2023-09-17T03:27:02.958Z,6.43
2023-09-17T03:29:36.006Z,5.50
2023-09-17T03:32:03.277Z,6.87
2023-09-17T03:34:37.015Z,6.30
2023-09-17T03:37:04.201Z,6.37
2023-09-17T03:39:37.969Z,7.10
2023-09-17T03:42:05.154Z,6.67
2023-09-17T03:44:34.865Z,6.67
2023-09-17T03:47:09.030Z,6.93
2023-09-17T03:49:42.980Z,7.73
2023-09-17T03:52:10.199Z,7.20
2023-09-17T03:54:37.046Z,7.17
2023-09-17T03:57:11.019Z,6.90
2023-09-17T03:59:38.011Z,6.50
2023-09-17T04:02:04.917Z,6.07
2023-09-17T04:04:38.009Z,7.20
2023-09-17T04:07:04.840Z,7.20
2023-09-17T04:09:31.893Z,5.50
2023-09-17T04:12:11.983Z,5.87
2023-09-17T04:20:40.988Z,5.60
2023-09-17T04:23:42.020Z,6.73
2023-09-17T04:26:13.592Z,6.57
2023-09-17T04:28:40.503Z,6.40
2023-09-17T04:31:19.062Z,6.47
2023-09-17T04:33:52.211Z,7.00
2023-09-17T04:36:26.039Z,6.40
2023-09-17T04:38:52.862Z,6.40
2023-09-17T04:41:26.009Z,5.47
2023-09-17T04:43:56.041Z,6.20
2023-09-17T04:46:23.567Z,7.50
2023-09-17T04:48:57.031Z,7.47
2023-09-17T04:54:19.726Z,7.20
2023-09-17T04:56:56.068Z,7.23
2023-09-17T04:59:24.477Z,7.47
2023-09-17T05:01:58.157Z,6.40
2023-09-17T05:05:05.064Z,6.63
2023-09-17T05:07:56.044Z,6.27
2023-09-17T05:10:29.087Z,7.17
2023-09-17T05:13:01.864Z,6.37
2023-09-17T05:15:35.220Z,7.00
2023-09-17T05:18:09.693Z,6.30
2023-09-17T05:20:47.984Z,6.30
2023-09-17T05:23:22.848Z,6.77
2023-09-17T05:25:58.003Z,7.73
2023-09-17T05:28:26.619Z,6.53
2023-09-17T05:30:56.863Z,7.47
2023-09-17T05:33:31.062Z,6.10
2023-09-17T05:35:57.917Z,6.80
2023-09-17T05:38:26.574Z,6.63
2023-09-17T05:41:00.116Z,7.33
2023-09-17T05:43:27.230Z,8.30
2023-09-17T05:46:04.177Z,6.73
2023-09-17T05:48:31.034Z,7.07
2023-09-17T05:51:04.101Z,5.43
2023-09-17T05:53:32.242Z,6.80
2023-09-17T05:56:15.084Z,6.67
2023-09-17T05:58:42.226Z,6.10
2023-09-17T06:01:15.166Z,8.13
2023-09-17T06:03:42.616Z,6.70
2023-09-17T06:06:16.087Z,6.00
2023-09-17T06:08:58.118Z,6.33
2023-09-17T06:11:32.024Z,6.53
2023-09-17T06:14:05.131Z,6.73
2023-09-17T06:16:53.954Z,7.13
2023-09-17T06:19:23.874Z,7.43
2023-09-17T06:21:57.203Z,7.50
2023-09-17T06:24:24.071Z,6.23
2023-09-17T06:26:51.559Z,6.70
2023-09-17T06:29:25.155Z,6.80
2023-09-17T06:31:52.240Z,6.33
2023-09-17T06:34:19.258Z,6.40
2023-09-17T06:36:53.128Z,8.00
2023-09-17T06:39:19.983Z,7.20
2023-09-17T06:41:53.167Z,7.47
2023-09-17T06:44:20.141Z,6.57
2023-09-17T06:46:47.465Z,6.43
2023-09-17T06:49:21.236Z,7.57
2023-09-17T06:51:49.611Z,7.17
2023-09-17T06:54:16.577Z,6.63
2023-09-17T06:56:50.172Z,6.60
2023-09-17T06:59:17.001Z,7.23
2023-09-17T07:01:46.743Z,5.57
2023-09-17T07:04:20.148Z,6.63
2023-09-17T07:06:53.277Z,5.87
2023-09-17T07:09:33.187Z,6.43
2023-09-17T07:12:00.010Z,5.80
2023-09-17T07:14:33.216Z,5.77
2023-09-17T07:17:00.158Z,6.13
2023-09-17T07:19:28.534Z,16.03
2023-09-17T07:22:02.261Z,14.43
2023-09-17T07:24:29.100Z,16.10
2023-09-17T07:27:02.219Z,13.97
2023-09-17T07:29:29.821Z,13.50
2023-09-17T07:31:56.791Z,13.07
2023-09-17T07:34:32.320Z,15.30
2023-09-17T07:37:01.209Z,15.13
2023-09-17T07:39:35.212Z,13.07
2023-09-17T07:42:02.064Z,12.73
2023-09-17T07:44:29.033Z,11.57
2023-09-17T07:47:02.341Z,11.63
2023-09-17T07:49:36.237Z,10.83
2023-09-17T07:52:11.214Z,11.77
2023-09-17T07:54:42.218Z,10.87
2023-09-17T07:57:19.193Z,12.90
2023-09-17T07:59:49.188Z,10.30
2023-09-17T08:02:22.321Z,10.23
2023-09-17T08:04:49.220Z,10.63
2023-09-17T08:07:29.258Z,10.50
2023-09-17T08:10:04.730Z,8.90
2023-09-17T08:12:41.259Z,9.07
2023-09-17T08:15:09.035Z,10.10
2023-09-17T08:17:42.320Z,9.13
2023-09-17T08:20:17.287Z,9.73
2023-09-17T08:22:44.797Z,7.70
2023-09-17T08:25:11.650Z,8.87
2023-09-17T08:27:45.260Z,8.33
2023-09-17T08:30:13.289Z,8.40
2023-09-17T08:32:49.302Z,8.70
2023-09-17T08:35:22.363Z,8.47
2023-09-17T08:37:57.297Z,7.20
2023-09-17T08:40:30.546Z,8.27
2023-09-17T08:43:05.262Z,8.03
2023-09-17T08:45:33.033Z,7.17
2023-09-17T08:48:06.301Z,8.03
2023-09-17T08:50:36.309Z,7.30
2023-09-17T08:53:13.284Z,6.60
2023-09-17T08:55:40.339Z,7.47
2023-09-17T08:58:25.345Z,6.33
2023-09-17T09:01:03.286Z,5.70
2023-09-17T09:03:34.935Z,6.87
2023-09-17T09:06:23.288Z,6.30
2023-09-17T09:08:58.283Z,7.73
2023-09-17T09:11:25.508Z,6.90
2023-09-17T09:13:54.595Z,6.60
2023-09-17T09:16:28.639Z,5.70
2023-09-17T09:18:55.504Z,7.03
2023-09-17T09:21:29.529Z,6.03
2023-09-17T09:24:06.635Z,5.77
2023-09-17T09:26:37.971Z,6.40
2023-09-17T09:29:13.597Z,6.40
2023-09-17T09:31:47.648Z,6.10
2023-09-17T09:34:16.166Z,5.17
2023-09-17T09:36:52.611Z,5.90
2023-09-17T09:39:21.271Z,4.80
2023-09-17T09:41:49.318Z,5.30
2023-09-17T09:44:23.331Z,4.80
2023-09-17T09:47:08.366Z,5.90
2023-09-17T09:49:43.149Z,5.70
2023-09-17T09:52:19.468Z,5.20
2023-09-17T09:54:47.536Z,5.70
2023-09-17T09:57:26.339Z,5.53
2023-09-17T09:59:53.659Z,5.30
2023-09-17T10:02:29.403Z,5.27
2023-09-17T10:04:56.369Z,5.13
2023-09-17T10:07:36.361Z,4.70
2023-09-17T10:10:03.645Z,5.40
2023-09-17T10:12:30.577Z,4.73
2023-09-17T10:15:04.372Z,6.10
2023-09-17T10:17:34.952Z,4.50
2023-09-17T10:20:13.366Z,4.50
2023-09-17T10:22:41.612Z,5.13
2023-09-17T10:25:10.525Z,5.37
2023-09-17T10:27:44.407Z,4.70
2023-09-17T10:30:13.911Z,4.47
2023-09-17T10:32:41.939Z,5.33
2023-09-17T10:35:17.389Z,4.87
2023-09-17T10:37:51.421Z,4.80
2023-09-17T10:40:18.607Z,4.97
2023-09-17T10:42:53.404Z,4.57
2023-09-17T10:45:28.645Z,4.03
2023-09-17T10:48:06.456Z,4.47
2023-09-17T10:50:44.394Z,4.50
2023-09-17T10:53:11.716Z,4.00
2023-09-17T10:55:51.430Z,4.73
2023-09-17T10:58:23.627Z,4.80
2023-09-17T11:00:58.448Z,4.37
2023-09-17T11:03:27.855Z,4.47
2023-09-17T11:06:06.939Z,4.37
2023-09-17T11:08:40.825Z,5.97
2023-09-17T11:11:14.558Z,4.40
2023-09-17T11:13:44.262Z,6.10
2023-09-17T11:16:13.021Z,4.67
2023-09-17T11:18:46.424Z,5.27
2023-09-17T11:21:14.191Z,4.80
2023-09-17T11:23:54.692Z,4.17
2023-09-17T11:26:32.497Z,4.40
2023-09-17T11:29:02.088Z,3.80
2023-09-17T11:31:36.718Z,4.50
2023-09-17T11:34:10.326Z,4.33
2023-09-17T11:36:43.700Z,4.10
2023-09-17T11:39:10.787Z,4.50
2023-09-17T11:41:43.530Z,4.77
2023-09-17T11:44:17.488Z,4.67
2023-09-17T11:46:45.622Z,4.43
2023-09-17T11:49:13.087Z,5.00
2023-09-17T11:51:54.705Z,4.77
2023-09-17T11:54:23.874Z,4.70
2023-09-17T11:57:01.489Z,4.27
2023-09-17T11:59:29.745Z,4.43
2023-09-17T12:01:58.862Z,4.10
2023-09-17T12:04:35.572Z,4.67
2023-09-17T12:07:24.716Z,4.53
2023-09-17T12:10:08.762Z,4.63
2023-09-17T12:12:43.745Z,4.40
2023-09-17T12:15:11.106Z,4.50
2023-09-17T12:17:44.270Z,4.30
2023-09-17T12:20:30.871Z,4.73
2023-09-17T12:22:58.061Z,4.00
2023-09-17T12:25:32.816Z,4.60
2023-09-17T12:27:59.629Z,4.73
2023-09-17T12:30:27.680Z,4.30
2023-09-17T12:33:01.763Z,3.63
2023-09-17T12:35:29.033Z,4.73
2023-09-17T12:37:56.442Z,5.27
2023-09-17T12:40:30.536Z,4.43
2023-09-17T12:42:58.519Z,4.87
2023-09-17T12:45:25.791Z,4.47
2023-09-17T12:47:59.888Z,5.00
2023-09-17T12:50:29.048Z,4.07
2023-09-17T12:52:56.198Z,4.27
2023-09-17T12:55:29.814Z,4.37
2023-09-17T12:57:56.927Z,4.60
2023-09-17T13:00:24.249Z,4.20
2023-09-17T13:03:01.581Z,4.73
2023-09-17T13:05:28.733Z,4.37
2023-09-17T13:08:22.019Z,4.40
2023-09-17T13:10:55.879Z,4.07
2023-09-17T13:13:23.054Z,4.30
2023-09-17T13:15:50.358Z,4.70
2023-09-17T13:18:23.831Z,4.33
2023-09-17T13:20:50.728Z,3.60
2023-09-17T13:23:17.690Z,4.10
2023-09-17T13:25:50.604Z,4.30
2023-09-17T13:28:20.552Z,4.60
2023-09-17T13:30:54.599Z,3.70
2023-09-17T13:33:28.585Z,4.63
2023-09-17T13:36:02.557Z,4.90
2023-09-17T13:38:29.571Z,5.13
2023-09-17T13:40:56.452Z,4.17
2023-09-17T13:43:29.587Z,4.10
2023-09-17T13:45:59.370Z,4.63
2023-09-17T13:48:34.649Z,4.40
2023-09-17T13:51:01.485Z,4.10
2023-09-17T13:53:28.311Z,4.10
2023-09-17T13:56:03.689Z,4.10
2023-09-17T13:58:30.524Z,4.17
2023-09-17T14:01:05.626Z,3.80
2023-09-17T14:03:32.520Z,3.70
2023-09-17T14:05:59.643Z,4.23
2023-09-17T14:08:41.883Z,3.80
2023-09-17T14:11:19.716Z,4.33
2023-09-17T14:13:52.895Z,3.97
2023-09-17T14:16:20.227Z,3.73
2023-09-17T14:18:55.884Z,4.00
2023-09-17T14:21:23.004Z,4.30
2023-09-17T14:23:50.071Z,4.20
2023-09-17T14:26:23.631Z,3.70
2023-09-17T14:28:50.961Z,4.00
2023-09-17T14:31:17.998Z,3.70
2023-09-17T14:33:51.638Z,4.43
2023-09-17T14:36:18.482Z,4.10
2023-09-17T14:38:45.323Z,4.00
2023-09-17T14:41:19.638Z,4.20
2023-09-17T14:43:46.546Z,4.17
2023-09-17T14:46:13.765Z,4.03
2023-09-17T14:48:47.676Z,4.07
2023-09-17T14:51:14.517Z,4.33
2023-09-17T14:53:41.342Z,3.80
2023-09-17T14:56:14.733Z,3.63
2023-09-17T14:58:41.987Z,4.50
2023-09-17T15:01:11.986Z,4.77
2023-09-17T15:03:52.813Z,4.27
2023-09-17T15:06:39.648Z,5.33
2023-09-17T15:09:12.688Z,3.93
2023-09-17T15:11:39.515Z,4.10
2023-09-17T15:14:12.731Z,4.03
2023-09-17T15:16:39.850Z,3.77
2023-09-17T15:19:13.678Z,4.23
2023-09-17T15:21:46.703Z,4.10
2023-09-17T15:24:14.829Z,3.77
2023-09-17T15:26:41.637Z,3.67
2023-09-17T15:29:18.714Z,3.80
2023-09-17T15:31:45.668Z,3.97
2023-09-17T15:34:14.180Z,4.33
2023-09-17T15:36:49.732Z,4.20
2023-09-17T15:39:16.645Z,3.80
2023-09-17T15:41:43.435Z,3.20
2023-09-17T15:44:16.751Z,4.00
2023-09-17T15:46:43.889Z,4.00
2023-09-17T15:49:10.957Z,3.63
2023-09-17T15:51:44.712Z,3.37
2023-09-17T15:54:11.547Z,4.20
2023-09-17T15:56:38.389Z,3.80
2023-09-17T15:59:11.778Z,3.50
2023-09-17T16:01:40.256Z,4.30
2023-09-17T16:04:13.868Z,4.10
2023-09-17T16:07:00.747Z,3.80
2023-09-17T16:09:33.731Z,3.40
2023-09-17T16:12:06.727Z,3.80
2023-09-17T16:14:33.546Z,3.50
2023-09-17T16:17:07.799Z,3.60
2023-09-17T16:19:44.766Z,3.43
2023-09-17T16:22:19.759Z,3.50
2023-09-17T16:24:46.568Z,3.43
2023-09-17T16:27:13.477Z,4.00
2023-09-17T16:29:47.779Z,3.60
2023-09-17T16:32:16.253Z,3.70
2023-09-17T16:34:43.386Z,3.40
2023-09-17T16:37:22.914Z,4.00
2023-09-17T16:39:51.798Z,3.80
2023-09-17T16:42:18.583Z,3.40
2023-09-17T16:44:52.771Z,3.43
2023-09-17T16:47:20.351Z,4.10
2023-09-17T16:49:47.904Z,2.90
2023-09-17T16:52:21.802Z,3.50
2023-09-17T16:54:54.797Z,3.50
2023-09-17T16:57:21.629Z,3.70
2023-09-17T16:59:48.461Z,3.77
2023-09-17T17:02:21.853Z,3.90
2023-09-17T17:04:49.037Z,3.40
2023-09-17T17:07:29.808Z,4.20
2023-09-17T17:10:03.638Z,3.73
2023-09-17T17:12:36.807Z,3.73
2023-09-17T17:15:04.283Z,3.83
2023-09-17T17:17:37.877Z,3.40
2023-09-17T17:20:05.296Z,3.60
2023-09-17T17:22:58.858Z,4.10
2023-09-17T17:25:31.835Z,3.90
2023-09-17T17:27:58.624Z,3.60
2023-09-17T17:30:27.367Z,3.50
2023-09-17T17:33:00.859Z,3.70
2023-09-17T17:35:27.758Z,2.90
2023-09-17T17:37:54.642Z,3.67
2023-09-17T17:40:30.863Z,3.00
2023-09-17T17:42:57.754Z,4.00
2023-09-17T17:45:24.949Z,4.10
2023-09-17T17:47:57.900Z,3.50
2023-09-17T17:50:24.938Z,3.27
2023-09-17T17:52:57.905Z,3.60
2023-09-17T17:55:24.765Z,3.60
2023-09-17T17:57:51.581Z,3.60
2023-09-17T18:00:25.868Z,3.27
2023-09-17T18:02:52.905Z,3.63
2023-09-17T18:05:25.940Z,3.30
2023-09-17T18:07:58.995Z,3.60
2023-09-17T18:10:31.890Z,3.20
2023-09-17T18:13:04.886Z,3.40
2023-09-17T18:15:33.132Z,3.20
2023-09-17T18:18:06.993Z,3.77
2023-09-17T18:20:37.640Z,3.60
2023-09-17T18:23:04.766Z,3.90
2023-09-17T18:25:39.886Z,4.13
2023-09-17T18:28:10.429Z,3.60
2023-09-17T18:30:44.030Z,3.00
2023-09-17T18:33:10.931Z,3.63
2023-09-17T18:35:43.878Z,3.77
2023-09-17T18:38:10.730Z,3.73
2023-09-17T18:40:39.161Z,3.30
2023-09-17T18:43:12.915Z,3.33
2023-09-17T18:45:45.915Z,3.83
2023-09-17T18:48:13.622Z,3.10
2023-09-17T18:50:40.678Z,4.50
2023-09-17T18:53:13.909Z,3.53
2023-09-17T18:55:40.794Z,3.87
2023-09-17T18:58:07.609Z,3.47
2023-09-17T19:00:41.201Z,3.70
2023-09-17T19:03:15.292Z,3.63
2023-09-17T19:05:42.207Z,2.87
2023-09-17T19:08:22.018Z,3.20
2023-09-17T19:10:49.513Z,3.47
2023-09-17T19:13:29.974Z,3.70
2023-09-17T19:16:11.109Z,3.40
2023-09-17T19:18:50.955Z,3.10
2023-09-17T19:21:23.976Z,4.27
2023-09-17T19:23:52.178Z,3.23
2023-09-17T19:26:20.992Z,3.30
2023-09-17T19:28:55.224Z,3.10
2023-09-17T19:31:29.012Z,3.47
2023-09-17T19:34:01.954Z,3.03
2023-09-17T19:36:28.773Z,3.60
2023-09-17T19:38:57.206Z,3.30
2023-09-17T19:41:30.999Z,2.80
2023-09-17T19:43:57.847Z,6.40
2023-09-17T19:46:26.259Z,3.03
2023-09-17T19:48:59.995Z,3.50
2023-09-17T19:51:26.808Z,3.37
2023-09-17T19:54:00.023Z,3.10
2023-09-17T19:56:26.916Z,3.30
2023-09-17T19:58:54.009Z,3.53
2023-09-17T20:01:28.043Z,3.80
2023-09-17T20:04:03.090Z,3.23
2023-09-17T20:06:39.924Z,3.30
2023-09-17T20:09:31.021Z,2.80
2023-09-17T20:11:59.103Z,2.90
2023-09-17T20:14:33.039Z,3.20
2023-09-17T20:16:59.855Z,3.20
2023-09-17T20:19:26.670Z,3.00
2023-09-17T20:22:00.046Z,3.53
2023-09-17T20:24:26.877Z,3.40
2023-09-17T20:27:01.046Z,3.23
2023-09-17T20:29:34.079Z,3.07
2023-09-17T20:32:00.975Z,2.80
2023-09-17T20:34:29.409Z,3.70
2023-09-17T20:37:03.039Z,2.87
2023-09-17T20:39:36.058Z,2.80
2023-09-17T20:42:11.037Z,3.20
2023-09-17T20:44:37.947Z,3.20
2023-09-17T20:47:11.100Z,3.17
2023-09-17T20:49:37.932Z,3.10
2023-09-17T20:52:11.046Z,3.43
2023-09-17T20:54:44.069Z,3.53
2023-09-17T20:57:10.916Z,2.77
2023-09-17T20:59:37.808Z,4.00
2023-09-17T21:02:11.139Z,2.83
2023-09-17T21:04:38.101Z,3.20
2023-09-17T21:07:11.079Z,2.90
2023-09-17T21:09:52.316Z,3.30
2023-09-17T21:12:26.110Z,3.57
2023-09-17T21:14:53.111Z,2.83
2023-09-17T21:17:20.046Z,3.10
2023-09-17T21:19:54.136Z,3.50
2023-09-17T21:22:21.085Z,2.80
2023-09-17T21:24:56.094Z,2.80
2023-09-17T21:27:22.910Z,3.33
2023-09-17T21:29:56.087Z,2.90
2023-09-17T21:32:29.162Z,2.50
2023-09-17T21:34:56.048Z,3.00
2023-09-17T21:37:29.210Z,2.80
2023-09-17T21:39:56.010Z,2.83
2023-09-17T21:42:22.843Z,3.43
2023-09-17T21:44:56.108Z,2.80
2023-09-17T21:47:22.974Z,3.33
2023-09-17T21:49:56.127Z,2.83
2023-09-17T21:52:29.409Z,2.87
2023-09-17T21:55:03.182Z,2.90
2023-09-17T21:57:36.129Z,2.70
2023-09-17T22:00:03.963Z,2.93
2023-09-17T22:02:30.916Z,2.50
2023-09-17T22:05:04.178Z,3.00
2023-09-17T22:07:51.136Z,3.60
2023-09-17T22:10:25.134Z,2.53
2023-09-17T22:12:51.973Z,3.40
2023-09-17T22:15:25.164Z,2.97
2023-09-17T22:17:53.829Z,2.60
2023-09-17T22:20:21.902Z,3.30
2023-09-17T22:22:56.205Z,2.63
2023-09-17T22:25:24.534Z,2.97
2023-09-17T22:27:58.416Z,3.30
2023-09-17T22:30:26.669Z,2.87
2023-09-17T22:33:01.204Z,3.43
2023-09-17T22:35:28.223Z,2.80
2023-09-17T22:38:01.176Z,3.20
2023-09-17T22:40:28.090Z,2.87
2023-09-17T22:43:01.169Z,3.33
2023-09-17T22:45:27.975Z,3.00
2023-09-17T22:47:54.815Z,2.60
2023-09-17T22:50:28.539Z,2.80
2023-09-17T22:52:55.382Z,3.10
2023-09-17T22:55:29.147Z,3.00
2023-09-17T22:57:55.948Z,2.43
2023-09-17T23:00:29.225Z,2.70
2023-09-17T23:02:56.151Z,2.93
2023-09-17T23:05:23.124Z,2.80
2023-09-17T23:07:58.236Z,3.53
2023-09-17T23:10:32.593Z,3.57
2023-09-17T23:13:06.228Z,3.20
2023-09-17T23:15:39.234Z,3.30
2023-09-17T23:18:07.375Z,3.00
2023-09-17T23:20:34.485Z,2.90
2023-09-17T23:23:08.263Z,2.93
2023-09-17T23:25:35.335Z,2.80
2023-09-17T23:28:02.129Z,3.30
2023-09-17T23:30:35.221Z,3.00
2023-09-17T23:33:12.302Z,2.77
2023-09-17T23:35:39.885Z,3.17
2023-09-17T23:38:06.732Z,3.50
2023-09-17T23:40:40.233Z,3.73
2023-09-17T23:43:07.049Z,3.00
2023-09-17T23:45:40.302Z,3.17
2023-09-17T23:48:07.760Z,3.20
2023-09-17T23:50:34.702Z,3.10
2023-09-17T23:53:10.273Z,3.10
2023-09-17T23:55:37.070Z,3.50
2023-09-17T23:58:10.245Z,3.40
